createdAt,value
2023-03-01T00:00:35.305Z,6.10
2023-03-01T00:03:05.174Z,7.00
2023-03-01T00:05:35.383Z,7.43
2023-03-01T00:08:05.155Z,6.73
2023-03-01T00:10:37.640Z,6.83
2023-03-01T00:13:08.119Z,6.83
2023-03-01T00:15:42.524Z,7.53
2023-03-01T00:18:12.542Z,5.87
2023-03-01T00:20:42.555Z,6.47
2023-03-01T00:23:12.770Z,6.70
2023-03-01T00:25:48.375Z,6.47
2023-03-01T00:28:18.514Z,6.67
2023-03-01T00:30:48.322Z,7.07
2023-03-01T00:33:18.176Z,6.63
2023-03-01T00:35:48.435Z,7.67
2023-03-01T00:38:18.343Z,7.20
2023-03-01T00:40:50.719Z,6.13
2023-03-01T00:43:20.533Z,6.43
2023-03-01T00:45:50.515Z,7.33
2023-03-01T00:48:20.242Z,6.23
2023-03-01T00:50:50.061Z,6.53
2023-03-01T00:53:19.863Z,6.63
2023-03-01T00:55:52.316Z,6.60
2023-03-01T00:58:22.174Z,6.20
2023-03-01T01:00:52.410Z,6.57
2023-03-01T01:03:22.257Z,6.10
2023-03-01T01:05:52.059Z,6.50
2023-03-01T01:08:22.028Z,6.27
2023-03-01T01:10:54.384Z,5.93
2023-03-01T01:13:24.107Z,6.13
2023-03-01T01:15:54.017Z,6.13
2023-03-01T01:18:23.780Z,5.53
2023-03-01T01:20:53.548Z,5.50
2023-03-01T01:23:23.407Z,5.63
2023-03-01T01:25:55.842Z,6.10
2023-03-01T01:28:25.747Z,5.23
2023-03-01T01:30:55.612Z,6.13
2023-03-01T01:33:25.339Z,5.93
2023-03-01T01:35:55.232Z,4.80
2023-03-01T01:38:25.388Z,5.47
2023-03-01T01:41:00.444Z,6.17
2023-03-01T01:43:32.492Z,5.70
2023-03-01T01:46:05.382Z,6.30
2023-03-01T01:48:44.196Z,5.87
2023-03-01T01:51:16.826Z,4.90
2023-03-01T01:53:49.069Z,5.47
2023-03-01T01:56:23.103Z,5.70
2023-03-01T01:58:54.291Z,5.60
2023-03-01T02:01:24.458Z,5.53
2023-03-01T02:03:55.274Z,5.73
2023-03-01T02:06:31.150Z,5.30
2023-03-01T02:09:04.854Z,6.07
2023-03-01T02:11:39.005Z,5.20
2023-03-01T02:14:09.788Z,6.43
2023-03-01T02:16:39.983Z,6.30
2023-03-01T02:19:11.469Z,5.83
2023-03-01T02:21:54.697Z,5.37
2023-03-01T02:24:30.656Z,5.50
2023-03-01T02:27:04.411Z,5.97
2023-03-01T02:29:36.791Z,5.93
2023-03-01T02:32:09.158Z,5.90
2023-03-01T02:34:39.081Z,5.60
2023-03-01T02:37:16.148Z,5.93
2023-03-01T02:39:50.129Z,5.90
2023-03-01T02:42:27.374Z,5.50
2023-03-01T02:45:00.178Z,6.37
2023-03-01T02:47:30.119Z,5.70
2023-03-01T02:50:00.128Z,4.97
2023-03-01T02:52:45.302Z,5.20
2023-03-01T02:55:17.810Z,5.03
2023-03-01T02:57:51.816Z,5.00
2023-03-01T03:00:28.585Z,4.93
2023-03-01T03:02:58.852Z,5.13
2023-03-01T03:05:31.145Z,5.63
2023-03-01T03:08:03.456Z,5.20
2023-03-01T03:10:37.870Z,6.33
2023-03-01T03:13:09.683Z,5.50
2023-03-01T03:15:42.882Z,5.40
2023-03-01T03:18:14.615Z,5.57
2023-03-01T03:20:45.989Z,5.63
2023-03-01T03:23:17.078Z,6.20
2023-03-01T03:25:46.962Z,5.40
2023-03-01T03:28:17.012Z,5.77
2023-03-01T03:30:51.013Z,5.50
2023-03-01T03:33:20.897Z,6.30
2023-03-01T03:35:52.623Z,5.17
2023-03-01T03:38:24.024Z,4.73
2023-03-01T03:40:56.924Z,5.40
2023-03-01T03:43:27.630Z,5.47
2023-03-01T03:46:06.959Z,5.00
2023-03-01T03:48:38.451Z,5.57
2023-03-01T03:51:09.049Z,5.50
2023-03-01T03:53:38.800Z,5.73
2023-03-01T03:56:09.874Z,5.03
2023-03-01T03:58:39.892Z,5.40
2023-03-01T04:01:12.598Z,5.70
2023-03-01T04:03:42.864Z,5.47
2023-03-01T04:06:12.821Z,6.20
2023-03-01T04:08:43.280Z,5.33
2023-03-01T04:11:25.595Z,5.30
2023-03-01T04:13:58.041Z,5.47
2023-03-01T04:16:30.932Z,5.33
2023-03-01T04:19:01.648Z,5.40
2023-03-01T04:21:31.460Z,6.13
2023-03-01T04:24:01.458Z,5.63
2023-03-01T04:26:31.599Z,5.83
2023-03-01T04:29:04.129Z,5.53
2023-03-01T04:31:36.494Z,5.37
2023-03-01T04:34:06.296Z,6.00
2023-03-01T04:36:37.117Z,5.73
2023-03-01T04:39:13.513Z,5.60
2023-03-01T04:41:44.315Z,5.40
2023-03-01T04:44:14.182Z,5.60
2023-03-01T04:46:46.490Z,5.20
2023-03-01T04:49:17.130Z,5.17
2023-03-01T04:51:46.925Z,5.13
2023-03-01T04:54:17.665Z,4.97
2023-03-01T04:56:47.409Z,5.60
2023-03-01T04:59:17.159Z,5.40
2023-03-01T05:01:49.805Z,5.83
2023-03-01T05:04:19.928Z,5.30
2023-03-01T05:06:49.796Z,5.57
2023-03-01T05:09:19.810Z,5.87
2023-03-01T05:11:51.188Z,5.93
2023-03-01T05:14:21.146Z,5.70
2023-03-01T05:16:53.450Z,5.77
2023-03-01T05:19:24.037Z,5.53
2023-03-01T05:22:05.951Z,5.37
2023-03-01T05:24:37.657Z,4.87
2023-03-01T05:27:07.551Z,5.17
2023-03-01T05:29:37.473Z,6.00
2023-03-01T05:32:14.598Z,5.43
2023-03-01T05:34:45.207Z,4.50
2023-03-01T05:37:14.961Z,4.77
2023-03-01T05:39:44.784Z,6.17
2023-03-01T05:42:15.541Z,5.97
2023-03-01T05:44:47.633Z,5.90
2023-03-01T05:47:20.149Z,6.43
2023-03-01T05:49:51.262Z,5.93
2023-03-01T05:52:21.037Z,5.80
2023-03-01T05:54:50.890Z,5.40
2023-03-01T05:57:21.424Z,5.33
2023-03-01T05:59:51.222Z,6.53
2023-03-01T06:02:23.715Z,5.77
2023-03-01T06:04:53.735Z,5.83
2023-03-01T06:07:23.587Z,5.20
2023-03-01T06:09:53.381Z,4.67
2023-03-01T06:12:23.179Z,5.70
2023-03-01T06:14:52.985Z,5.37
2023-03-01T06:17:25.640Z,5.93
2023-03-01T06:19:55.482Z,5.20
2023-03-01T06:22:25.356Z,6.60
2023-03-01T06:24:57.281Z,5.93
2023-03-01T06:27:29.952Z,6.40
2023-03-01T06:29:59.740Z,6.00
2023-03-01T06:32:32.887Z,5.90
2023-03-01T06:35:02.641Z,5.40
2023-03-01T06:37:32.390Z,4.67
2023-03-01T06:40:05.795Z,5.53
2023-03-01T06:42:35.599Z,6.57
2023-03-01T06:45:06.048Z,5.47
2023-03-01T06:47:38.773Z,6.37
2023-03-01T06:50:09.228Z,5.83
2023-03-01T06:52:39.038Z,6.13
2023-03-01T06:55:09.971Z,7.00
2023-03-01T06:57:40.046Z,5.27
2023-03-01T07:00:11.557Z,6.40
2023-03-01T07:02:44.170Z,6.07
2023-03-01T07:05:13.989Z,6.23
2023-03-01T07:07:43.821Z,5.67
2023-03-01T07:10:15.254Z,6.00
2023-03-01T07:12:45.258Z,6.60
2023-03-01T07:15:16.273Z,5.70
2023-03-01T07:17:51.175Z,5.90
2023-03-01T07:20:23.634Z,6.77
2023-03-01T07:22:53.522Z,7.00
2023-03-01T07:25:23.253Z,7.40
2023-03-01T07:27:54.746Z,7.20
2023-03-01T07:30:27.126Z,7.13
2023-03-01T07:33:01.020Z,6.73
2023-03-01T07:35:32.121Z,7.37
2023-03-01T07:38:01.863Z,6.63
2023-03-01T07:40:32.199Z,6.33
2023-03-01T07:43:02.510Z,6.90
2023-03-01T07:45:33.095Z,6.57
2023-03-01T07:48:05.501Z,7.00
2023-03-01T07:50:35.626Z,6.93
2023-03-01T07:53:06.046Z,6.60
2023-03-01T07:55:35.868Z,7.00
2023-03-01T07:58:05.747Z,7.20
2023-03-01T08:00:35.488Z,7.40
2023-03-01T08:03:10.256Z,7.33
2023-03-01T08:05:40.131Z,6.57
2023-03-01T08:08:10.088Z,7.13
2023-03-01T08:10:40.599Z,7.57
2023-03-01T08:13:10.704Z,7.33
2023-03-01T08:15:40.579Z,7.10
2023-03-01T08:18:13.505Z,6.43
2023-03-01T08:20:43.318Z,7.43
2023-03-01T08:23:15.377Z,7.47
2023-03-01T08:25:45.390Z,7.63
2023-03-01T08:28:15.176Z,6.50
2023-03-01T08:30:44.954Z,5.93
2023-03-01T08:33:17.577Z,6.23
2023-03-01T08:35:47.544Z,6.70
2023-03-01T08:38:17.694Z,5.70
2023-03-01T08:40:48.565Z,6.40
2023-03-01T08:43:18.730Z,6.90
2023-03-01T08:45:48.551Z,5.97
2023-03-01T08:48:21.091Z,5.73
2023-03-01T08:50:50.875Z,4.63
2023-03-01T08:53:22.928Z,5.60
2023-03-01T08:55:52.848Z,6.20
2023-03-01T08:58:22.576Z,6.93
2023-03-01T09:00:52.371Z,6.37
2023-03-01T09:03:24.986Z,5.90
2023-03-01T09:05:55.065Z,5.90
2023-03-01T09:08:24.992Z,5.70
2023-03-01T09:10:55.422Z,6.00
2023-03-01T09:13:26.003Z,6.23
2023-03-01T09:15:55.771Z,6.53
2023-03-01T09:18:28.548Z,5.70
2023-03-01T09:21:08.437Z,6.37
2023-03-01T09:23:39.993Z,5.30
2023-03-01T09:26:11.545Z,5.63
2023-03-01T09:28:43.893Z,5.13
2023-03-01T09:31:14.007Z,5.17
2023-03-01T09:33:49.498Z,6.07
2023-03-01T09:36:21.815Z,6.00
2023-03-01T09:38:55.724Z,5.60
2023-03-01T09:41:51.400Z,5.40
2023-03-01T09:44:40.596Z,5.67
2023-03-01T09:47:16.528Z,5.60
2023-03-01T09:49:56.213Z,5.40
2023-03-01T09:52:33.706Z,5.70
2023-03-01T09:55:03.500Z,6.10
2023-03-01T09:57:40.723Z,5.70
2023-03-01T10:00:33.832Z,6.13
2023-03-01T10:03:13.929Z,5.77
2023-03-01T10:05:56.893Z,5.60
2023-03-01T10:08:36.989Z,5.40
2023-03-01T10:11:07.691Z,5.87
2023-03-01T10:13:47.568Z,5.57
2023-03-01T10:16:22.013Z,5.60
2023-03-01T10:18:59.697Z,5.90
2023-03-01T10:21:33.868Z,5.80
2023-03-01T10:24:14.303Z,5.77
2023-03-01T10:26:52.230Z,5.30
2023-03-01T10:29:27.919Z,5.30
2023-03-01T10:31:58.820Z,6.40
2023-03-01T10:34:34.470Z,6.27
2023-03-01T10:37:15.547Z,6.03
2023-03-01T10:40:10.232Z,5.50
2023-03-01T10:42:43.162Z,6.33
2023-03-01T10:45:30.879Z,5.10
2023-03-01T10:48:16.539Z,5.57
2023-03-01T10:50:49.154Z,5.70
2023-03-01T10:53:33.377Z,5.70
2023-03-01T10:56:05.811Z,5.43
2023-03-01T10:58:37.112Z,5.93
2023-03-01T11:01:09.222Z,5.90
2023-03-01T11:03:52.421Z,5.07
2023-03-01T11:06:27.425Z,5.37
2023-03-01T11:09:00.024Z,5.23
2023-03-01T11:11:37.652Z,5.40
2023-03-01T11:14:24.983Z,4.90
2023-03-01T11:17:04.778Z,5.07
2023-03-01T11:19:35.076Z,5.03
2023-03-01T11:22:10.042Z,5.40
2023-03-01T11:24:46.192Z,5.60
2023-03-01T11:27:22.276Z,5.67
2023-03-01T11:29:58.925Z,4.73
2023-03-01T11:32:34.093Z,5.23
2023-03-01T11:35:08.418Z,5.00
2023-03-01T11:37:42.727Z,5.17
2023-03-01T11:40:26.512Z,5.17
2023-03-01T11:43:09.475Z,4.97
2023-03-01T11:45:51.531Z,5.00
2023-03-01T11:48:50.178Z,4.57
2023-03-01T11:51:28.559Z,3.63
2023-03-01T11:54:17.502Z,4.53
2023-03-01T11:56:54.586Z,5.03
2023-03-01T12:00:09.030Z,5.63
2023-03-01T12:03:11.466Z,5.17
2023-03-01T12:06:16.993Z,4.83
2023-03-01T12:08:55.494Z,5.30
2023-03-01T12:11:41.536Z,5.40
2023-03-01T12:14:34.863Z,4.83
2023-03-01T12:17:28.192Z,5.30
2023-03-01T12:20:15.348Z,5.23
2023-03-01T12:22:56.907Z,5.90
2023-03-01T12:25:38.631Z,5.03
2023-03-01T12:28:40.399Z,5.23
2023-03-01T12:31:44.527Z,4.57
2023-03-01T12:34:38.723Z,5.70
2023-03-01T12:37:30.740Z,5.50
2023-03-01T12:40:27.793Z,5.60
2023-03-01T12:43:10.383Z,4.37
2023-03-01T12:45:54.818Z,4.97
2023-03-01T12:48:41.544Z,4.70
2023-03-01T12:51:15.604Z,4.80
2023-03-01T12:53:50.859Z,5.30
2023-03-01T12:56:24.160Z,5.77
2023-03-01T12:59:03.648Z,5.50
2023-03-01T13:01:43.365Z,5.33
2023-03-01T13:04:25.003Z,4.37
2023-03-01T13:07:05.609Z,4.93
2023-03-01T13:09:44.616Z,4.67
2023-03-01T13:12:44.418Z,5.07
2023-03-01T13:15:30.610Z,4.93
2023-03-01T13:18:02.467Z,4.63
2023-03-01T13:20:48.994Z,4.67
2023-03-01T13:23:29.960Z,4.70
2023-03-01T13:26:16.243Z,4.03
2023-03-01T13:28:57.960Z,4.70
2023-03-01T13:32:08.218Z,4.50
2023-03-01T13:35:01.119Z,4.97
2023-03-01T13:37:41.460Z,4.27
2023-03-01T13:40:41.135Z,4.70
2023-03-01T13:43:33.489Z,4.43
2023-03-01T13:46:04.842Z,4.57
2023-03-01T13:48:35.587Z,4.23
2023-03-01T13:51:07.826Z,4.90
2023-03-01T13:53:45.083Z,5.03
2023-03-01T13:56:18.652Z,4.50
2023-03-01T13:58:52.729Z,4.87
2023-03-01T14:01:28.992Z,5.93
2023-03-01T14:03:59.688Z,4.97
2023-03-01T14:06:32.455Z,4.77
2023-03-01T14:09:18.640Z,4.47
2023-03-01T14:12:10.304Z,4.43
2023-03-01T14:14:49.480Z,5.07
2023-03-01T14:17:41.927Z,4.97
2023-03-01T14:20:18.410Z,4.47
2023-03-01T14:22:50.053Z,5.13
2023-03-01T14:25:31.163Z,4.80
2023-03-01T14:28:06.244Z,5.00
2023-03-01T14:30:40.205Z,4.77
2023-03-01T14:33:23.182Z,5.33
2023-03-01T14:35:59.528Z,5.53
2023-03-01T14:38:38.637Z,5.73
2023-03-01T14:41:16.501Z,5.43
2023-03-01T14:43:50.756Z,5.03
2023-03-01T14:46:25.269Z,5.67
2023-03-01T14:48:56.954Z,5.53
2023-03-01T14:51:27.234Z,5.80
2023-03-01T14:53:57.750Z,6.33
2023-03-01T14:56:30.685Z,6.03
2023-03-01T14:59:02.702Z,5.90
2023-03-01T15:01:32.778Z,6.27
2023-03-01T15:04:03.639Z,6.10
2023-03-01T15:06:33.937Z,6.33
2023-03-01T15:09:04.097Z,5.90
2023-03-01T15:11:38.125Z,6.00
2023-03-01T15:14:32.104Z,6.60
2023-03-01T15:17:02.011Z,5.50
2023-03-01T15:19:32.645Z,5.47
2023-03-01T15:22:13.158Z,6.07
2023-03-01T15:24:43.103Z,5.70
2023-03-01T15:27:22.960Z,5.13
2023-03-01T15:29:54.549Z,5.50
2023-03-01T15:32:31.564Z,5.33
2023-03-01T15:35:01.960Z,6.17
2023-03-01T15:37:48.897Z,4.90
2023-03-01T15:40:32.746Z,5.10
2023-03-01T15:43:07.429Z,4.73
2023-03-01T15:45:39.872Z,4.97
2023-03-01T15:48:22.158Z,4.47
2023-03-01T15:50:59.235Z,5.20
2023-03-01T15:53:32.196Z,4.47
2023-03-01T15:56:01.976Z,5.23
2023-03-01T15:58:34.429Z,5.17
2023-03-01T16:01:04.620Z,5.87
2023-03-01T16:03:34.436Z,5.30
2023-03-01T16:06:04.219Z,5.83
2023-03-01T16:08:33.994Z,5.77
2023-03-01T16:11:05.928Z,5.97
2023-03-01T16:13:38.515Z,5.43
2023-03-01T16:16:09.111Z,5.23
2023-03-01T16:18:39.313Z,5.37
2023-03-01T16:21:09.408Z,5.10
2023-03-01T16:23:39.242Z,5.90
2023-03-01T16:26:09.570Z,5.30
2023-03-01T16:28:42.012Z,5.77
2023-03-01T16:31:12.090Z,5.70
2023-03-01T16:33:42.347Z,4.87
2023-03-01T16:36:14.826Z,5.57
2023-03-01T16:38:44.906Z,5.50
2023-03-01T16:41:17.026Z,5.40
2023-03-01T16:43:50.557Z,5.57
2023-03-01T16:46:22.881Z,5.90
2023-03-01T16:48:53.552Z,5.90
2023-03-01T16:51:25.047Z,5.73
2023-03-01T16:53:55.243Z,5.47
2023-03-01T16:56:25.125Z,5.50
2023-03-01T16:59:01.766Z,5.30
2023-03-01T17:01:40.627Z,5.03
2023-03-01T17:04:10.615Z,5.03
2023-03-01T17:06:40.631Z,5.67
2023-03-01T17:09:10.561Z,5.50
2023-03-01T17:11:40.435Z,5.10
2023-03-01T17:14:12.866Z,4.67
2023-03-01T17:16:42.934Z,5.17
2023-03-01T17:19:13.845Z,4.37
2023-03-01T17:21:43.669Z,5.37
2023-03-01T17:24:13.773Z,5.17
2023-03-01T17:26:44.440Z,5.00
2023-03-01T17:29:18.998Z,4.40
2023-03-01T17:31:49.425Z,4.77
2023-03-01T17:34:19.822Z,4.60
2023-03-01T17:36:50.821Z,5.03
2023-03-01T17:39:25.775Z,4.73
2023-03-01T17:41:55.915Z,4.90
2023-03-01T17:44:28.915Z,3.77
2023-03-01T17:46:58.689Z,4.97
2023-03-01T17:49:29.150Z,4.77
2023-03-01T17:51:59.537Z,5.07
2023-03-01T17:54:29.565Z,5.23
2023-03-01T17:56:59.649Z,5.40
2023-03-01T17:59:34.173Z,5.10
2023-03-01T18:02:04.034Z,5.40
2023-03-01T18:04:34.619Z,5.30
2023-03-01T18:07:04.408Z,6.10
2023-03-01T18:09:34.290Z,5.00
2023-03-01T18:12:05.022Z,5.60
2023-03-01T18:14:37.537Z,4.70
2023-03-01T18:17:12.007Z,4.80
2023-03-01T18:19:45.272Z,5.30
2023-03-01T18:22:15.309Z,5.30
2023-03-01T18:24:46.584Z,5.40
2023-03-01T18:27:16.383Z,4.73
2023-03-01T18:29:48.882Z,5.23
2023-03-01T18:32:18.821Z,5.17
2023-03-01T18:34:48.549Z,5.40
2023-03-01T18:37:21.011Z,5.50
2023-03-01T18:39:54.046Z,5.67
2023-03-01T18:42:24.541Z,5.23
2023-03-01T18:45:00.108Z,5.50
2023-03-01T18:47:30.103Z,5.63
2023-03-01T18:49:59.975Z,4.93
2023-03-01T18:52:29.910Z,5.37
2023-03-01T18:55:00.313Z,4.97
2023-03-01T18:57:30.898Z,6.03
2023-03-01T19:00:04.260Z,6.17
2023-03-01T19:02:34.218Z,4.80
2023-03-01T19:05:07.193Z,5.57
2023-03-01T19:07:37.512Z,5.10
2023-03-01T19:10:08.361Z,5.30
2023-03-01T19:12:38.579Z,4.83
2023-03-01T19:15:11.826Z,5.63
2023-03-01T19:17:41.692Z,5.00
2023-03-01T19:20:13.112Z,5.00
2023-03-01T19:22:42.949Z,5.70
2023-03-01T19:25:13.309Z,4.77
2023-03-01T19:27:43.230Z,5.67
2023-03-01T19:30:16.927Z,5.33
2023-03-01T19:32:46.844Z,5.47
2023-03-01T19:35:16.802Z,5.60
2023-03-01T19:37:46.638Z,5.60
2023-03-01T19:40:16.674Z,5.20
2023-03-01T19:42:46.492Z,5.00
2023-03-01T19:45:25.267Z,5.03
2023-03-01T19:48:01.746Z,5.40
2023-03-01T19:50:31.845Z,4.90
2023-03-01T19:53:01.779Z,4.83
2023-03-01T19:55:33.548Z,4.90
2023-03-01T19:58:03.377Z,5.70
2023-03-01T20:00:36.141Z,4.60
2023-03-01T20:03:06.475Z,5.33
2023-03-01T20:05:37.682Z,5.23
2023-03-01T20:08:09.649Z,4.97
2023-03-01T20:10:39.568Z,4.13
2023-03-01T20:13:09.395Z,4.87
2023-03-01T20:15:44.113Z,5.23
2023-03-01T20:18:15.109Z,5.07
2023-03-01T20:20:45.376Z,5.50
2023-03-01T20:23:15.176Z,5.23
2023-03-01T20:25:45.004Z,4.50
2023-03-01T20:28:15.178Z,5.40
2023-03-01T20:30:49.379Z,5.33
2023-03-01T20:33:19.138Z,4.77
2023-03-01T20:35:49.089Z,4.47
2023-03-01T20:38:19.057Z,4.10
2023-03-01T20:40:48.809Z,4.53
2023-03-01T20:43:18.794Z,4.57
2023-03-01T20:45:51.346Z,4.73
2023-03-01T20:48:21.105Z,5.03
2023-03-01T20:50:55.004Z,5.07
2023-03-01T20:53:24.831Z,5.40
2023-03-01T20:55:54.658Z,5.80
2023-03-01T20:58:24.518Z,4.53
2023-03-01T21:00:57.253Z,5.30
2023-03-01T21:03:27.486Z,4.90
2023-03-01T21:05:59.322Z,4.30
2023-03-01T21:08:29.353Z,4.80
2023-03-01T21:11:00.223Z,5.00
2023-03-01T21:13:31.018Z,4.43
2023-03-01T21:16:07.972Z,4.90
2023-03-01T21:18:38.616Z,4.50
2023-03-01T21:21:10.882Z,4.77
2023-03-01T21:23:42.572Z,5.00
2023-03-01T21:26:15.100Z,4.63
2023-03-01T21:28:47.003Z,4.50
2023-03-01T21:31:22.361Z,4.73
2023-03-01T21:33:53.764Z,4.13
2023-03-01T21:36:25.649Z,3.77
2023-03-01T21:38:56.130Z,4.37
2023-03-01T21:41:27.790Z,4.33
2023-03-01T21:44:00.948Z,4.43
2023-03-01T21:46:36.864Z,4.47
2023-03-01T21:49:07.829Z,4.53
2023-03-01T21:51:40.270Z,4.53
2023-03-01T21:54:10.951Z,4.20
2023-03-01T21:56:41.160Z,4.67
2023-03-01T21:59:16.742Z,4.50
2023-03-01T22:01:51.376Z,4.10
2023-03-01T22:04:24.855Z,4.70
2023-03-01T22:06:55.120Z,4.67
2023-03-01T22:09:28.572Z,4.60
2023-03-01T22:12:02.709Z,4.43
2023-03-01T22:14:35.152Z,4.27
2023-03-01T22:17:09.003Z,4.37
2023-03-01T22:19:38.815Z,4.13
2023-03-01T22:22:08.512Z,4.40
2023-03-01T22:24:38.342Z,3.73
2023-03-01T22:27:08.599Z,3.90
2023-03-01T22:29:39.077Z,3.87
2023-03-01T22:32:11.703Z,4.23
2023-03-01T22:34:41.656Z,4.27
2023-03-01T22:37:11.432Z,4.70
2023-03-01T22:39:41.157Z,4.00
2023-03-01T22:42:11.095Z,4.43
2023-03-01T22:44:41.975Z,4.50
2023-03-01T22:47:14.603Z,4.50
2023-03-01T22:49:44.571Z,4.03
2023-03-01T22:52:14.515Z,4.30
2023-03-01T22:54:44.599Z,3.93
2023-03-01T22:57:14.545Z,3.70
2023-03-01T22:59:44.329Z,4.33
2023-03-01T23:02:17.335Z,4.27
2023-03-01T23:04:48.553Z,4.23
2023-03-01T23:07:18.425Z,4.30
2023-03-01T23:09:50.670Z,4.23
2023-03-01T23:12:21.086Z,4.50
2023-03-01T23:14:50.845Z,4.27
2023-03-01T23:17:23.320Z,4.40
2023-03-01T23:19:53.597Z,4.60
2023-03-01T23:22:23.691Z,4.13
2023-03-01T23:24:53.547Z,4.40
2023-03-01T23:27:23.316Z,3.97
2023-03-01T23:29:55.324Z,3.90
2023-03-01T23:32:27.966Z,4.17
2023-03-01T23:34:58.042Z,4.27
2023-03-01T23:37:32.674Z,4.53
2023-03-01T23:40:06.188Z,4.43
2023-03-01T23:42:36.334Z,5.10
2023-03-01T23:45:08.058Z,4.73
2023-03-01T23:47:40.631Z,4.43
2023-03-01T23:50:11.373Z,4.43
2023-03-01T23:52:42.795Z,4.70
2023-03-01T23:55:15.535Z,4.73
2023-03-01T23:57:45.785Z,4.50
